sensor_id;sensor_type;location;lat;lon;timestamp;pressure;altitude;pressure_sealevel;temperature;humidity
82555;BME280;72219;48.186;11.554;2024-03-07T00:00:07;96101.53;;;15.67;45.23
82555;BME280;72219;48.186;11.554;2024-03-07T00:02:41;96094.19;;;15.62;45.04
82555;BME280;72219;48.186;11.554;2024-03-07T00:05:06;96087.81;;;15.57;45.21
82555;BME280;72219;48.186;11.554;2024-03-07T00:07:33;96080.00;;;15.57;44.74
82555;BME280;72219;48.186;11.554;2024-03-07T00:09:58;96092.53;;;15.61;44.92
82555;BME280;72219;48.186;11.554;2024-03-07T00:12:24;96087.66;;;15.58;44.90
82555;BME280;72219;48.186;11.554;2024-03-07T00:14:49;96054.25;;;15.37;44.82
82555;BME280;72219;48.186;11.554;2024-03-07T00:17:14;96084.72;;;15.61;45.06
82555;BME280;72219;48.186;11.554;2024-03-07T00:19:40;96080.84;;;15.66;44.94
82555;BME280;72219;48.186;11.554;2024-03-07T00:22:05;96087.19;;;15.63;45.06
82555;BME280;72219;48.186;11.554;2024-03-07T00:24:30;96082.59;;;15.57;44.96
82555;BME280;72219;48.186;11.554;2024-03-07T00:26:56;96083.75;;;15.62;44.96
82555;BME280;72219;48.186;11.554;2024-03-07T00:29:23;96083.13;;;15.60;45.22
82555;BME280;72219;48.186;11.554;2024-03-07T00:31:49;96084.88;;;15.60;44.76
82555;BME280;72219;48.186;11.554;2024-03-07T00:34:15;96077.22;;;15.58;44.67
82555;BME280;72219;48.186;11.554;2024-03-07T00:36:42;96080.50;;;15.60;45.01
82555;BME280;72219;48.186;11.554;2024-03-07T00:39:07;96081.81;;;15.56;44.70
82555;BME280;72219;48.186;11.554;2024-03-07T00:41:39;96081.81;;;15.56;45.25
82555;BME280;72219;48.186;11.554;2024-03-07T00:44:06;96083.28;;;15.59;44.95
82555;BME280;72219;48.186;11.554;2024-03-07T00:46:34;96062.88;;;15.46;44.78
82555;BME280;72219;48.186;11.554;2024-03-07T00:48:59;96074.28;;;15.53;45.10
82555;BME280;72219;48.186;11.554;2024-03-07T00:51:25;96082.44;;;15.58;45.13
82555;BME280;72219;48.186;11.554;2024-03-07T00:53:51;96080.97;;;15.56;45.09
82555;BME280;72219;48.186;11.554;2024-03-07T00:56:16;96074.78;;;15.57;45.11
82555;BME280;72219;48.186;11.554;2024-03-07T00:58:42;96064.50;;;15.55;44.83
82555;BME280;72219;48.186;11.554;2024-03-07T01:01:07;96069.41;;;15.58;45.19
82555;BME280;72219;48.186;11.554;2024-03-07T01:03:33;96055.22;;;15.53;44.52
82555;BME280;72219;48.186;11.554;2024-03-07T01:05:59;96061.91;;;15.55;45.11
82555;BME280;72219;48.186;11.554;2024-03-07T01:08:25;96047.41;;;15.44;45.00
82555;BME280;72219;48.186;11.554;2024-03-07T01:10:52;96056.69;;;15.55;44.83
82555;BME280;72219;48.186;11.554;2024-03-07T01:13:19;96055.06;;;15.54;45.03
82555;BME280;72219;48.186;11.554;2024-03-07T01:15:47;96058.34;;;15.56;44.91
82555;BME280;72219;48.186;11.554;2024-03-07T01:18:14;96060.09;;;15.56;45.12
82555;BME280;72219;48.186;11.554;2024-03-07T01:20:39;96060.59;;;15.51;45.03
82555;BME280;72219;48.186;11.554;2024-03-07T01:23:06;96043.94;;;15.44;45.35
82555;BME280;72219;48.186;11.554;2024-03-07T01:25:33;96059.63;;;15.52;45.09
82555;BME280;72219;48.186;11.554;2024-03-07T01:28:02;96058.63;;;15.53;44.68
82555;BME280;72219;48.186;11.554;2024-03-07T01:30:29;96052.78;;;15.51;45.16
82555;BME280;72219;48.186;11.554;2024-03-07T01:32:54;96045.59;;;15.53;45.18
82555;BME280;72219;48.186;11.554;2024-03-07T01:35:20;96047.72;;;15.50;44.91
82555;BME280;72219;48.186;11.554;2024-03-07T01:37:45;96045.44;;;15.55;44.77
82555;BME280;72219;48.186;11.554;2024-03-07T01:40:11;96050.66;;;15.55;44.98
82555;BME280;72219;48.186;11.554;2024-03-07T01:42:37;96047.22;;;15.54;45.42
82555;BME280;72219;48.186;11.554;2024-03-07T01:45:03;96043.81;;;15.54;44.81
82555;BME280;72219;48.186;11.554;2024-03-07T01:47:28;96036.16;;;15.52;44.95
82555;BME280;72219;48.186;11.554;2024-03-07T01:49:54;96032.56;;;15.53;45.05
82555;BME280;72219;48.186;11.554;2024-03-07T01:52:19;96030.94;;;15.52;44.95
82555;BME280;72219;48.186;11.554;2024-03-07T01:54:48;96017.75;;;15.45;45.16
82555;BME280;72219;48.186;11.554;2024-03-07T01:57:16;96028.63;;;15.49;45.19
82555;BME280;72219;48.186;11.554;2024-03-07T01:59:43;96019.22;;;15.48;45.32
82555;BME280;72219;48.186;11.554;2024-03-07T02:02:09;96014.63;;;15.42;45.31
82555;BME280;72219;48.186;11.554;2024-03-07T02:04:35;96022.94;;;15.54;44.96
82555;BME280;72219;48.186;11.554;2024-03-07T02:07:01;96014.47;;;15.52;44.76
82555;BME280;72219;48.186;11.554;2024-03-07T02:09:26;96016.09;;;15.53;45.16
82555;BME280;72219;48.186;11.554;2024-03-07T02:11:53;96004.03;;;15.52;45.10
82555;BME280;72219;48.186;11.554;2024-03-07T02:14:19;95997.50;;;15.47;44.91
82555;BME280;72219;48.186;11.554;2024-03-07T02:16:45;95992.47;;;15.46;45.09
82555;BME280;72219;48.186;11.554;2024-03-07T02:19:13;95995.06;;;15.46;45.28
82555;BME280;72219;48.186;11.554;2024-03-07T02:21:39;96001.59;;;15.50;45.14
82555;BME280;72219;48.186;11.554;2024-03-07T02:24:05;96000.44;;;15.44;44.81
82555;BME280;72219;48.186;11.554;2024-03-07T02:26:31;95999.31;;;15.47;44.95
82555;BME280;72219;48.186;11.554;2024-03-07T02:28:57;95991.50;;;15.47;45.06
82555;BME280;72219;48.186;11.554;2024-03-07T02:31:24;95996.88;;;15.45;44.81
82555;BME280;72219;48.186;11.554;2024-03-07T02:34:01;95981.69;;;15.41;44.99
82555;BME280;72219;48.186;11.554;2024-03-07T02:36:27;95990.19;;;15.43;44.77
82555;BME280;72219;48.186;11.554;2024-03-07T02:38:52;95992.28;;;15.47;45.19
82555;BME280;72219;48.186;11.554;2024-03-07T02:41:18;95990.34;;;15.50;45.11
82555;BME280;72219;48.186;11.554;2024-03-07T02:43:44;95981.53;;;15.42;45.18
82555;BME280;72219;48.186;11.554;2024-03-07T02:46:09;95984.47;;;15.47;45.05
82555;BME280;72219;48.186;11.554;2024-03-07T02:48:37;95978.44;;;15.47;45.16
82555;BME280;72219;48.186;11.554;2024-03-07T02:51:02;95985.59;;;15.45;44.74
82555;BME280;72219;48.186;11.554;2024-03-07T02:53:28;95982.19;;;15.44;45.04
82555;BME280;72219;48.186;11.554;2024-03-07T02:55:53;95985.44;;;15.46;44.87
82555;BME280;72219;48.186;11.554;2024-03-07T02:58:19;95977.78;;;15.45;44.69
82555;BME280;72219;48.186;11.554;2024-03-07T03:00:45;95992.28;;;15.47;44.73
82555;BME280;72219;48.186;11.554;2024-03-07T03:03:10;95981.69;;;15.41;45.14
82555;BME280;72219;48.186;11.554;2024-03-07T03:05:36;95990.81;;;15.45;44.76
82555;BME280;72219;48.186;11.554;2024-03-07T03:08:01;95992.78;;;15.43;44.99
82555;BME280;72219;48.186;11.554;2024-03-07T03:10:28;95976.81;;;15.38;45.12
82555;BME280;72219;48.186;11.554;2024-03-07T03:12:58;95977.16;;;15.43;45.15
82555;BME280;72219;48.186;11.554;2024-03-07T03:15:25;95976.03;;;15.37;45.21
82555;BME280;72219;48.186;11.554;2024-03-07T03:17:51;95984.97;;;15.43;44.74
82555;BME280;72219;48.186;11.554;2024-03-07T03:20:17;95974.38;;;15.36;45.17
82555;BME280;72219;48.186;11.554;2024-03-07T03:22:56;95977.31;;;15.41;44.99
82555;BME280;72219;48.186;11.554;2024-03-07T03:25:21;95977.63;;;15.38;44.65
82555;BME280;72219;48.186;11.554;2024-03-07T03:27:50;95984.97;;;15.43;44.83
82555;BME280;72219;48.186;11.554;2024-03-07T03:30:15;95980.22;;;15.38;44.92
82555;BME280;72219;48.186;11.554;2024-03-07T03:32:46;95973.25;;;15.39;45.08
82555;BME280;72219;48.186;11.554;2024-03-07T03:35:13;95976.16;;;15.36;45.12
82555;BME280;72219;48.186;11.554;2024-03-07T03:37:40;95981.69;;;15.41;45.12
82555;BME280;72219;48.186;11.554;2024-03-07T03:40:08;95984.97;;;15.43;45.17
82555;BME280;72219;48.186;11.554;2024-03-07T03:42:35;95972.91;;;15.34;45.22
82555;BME280;72219;48.186;11.554;2024-03-07T03:45:01;95976.16;;;15.36;45.07
82555;BME280;72219;48.186;11.554;2024-03-07T03:47:37;95986.44;;;15.37;44.99
82555;BME280;72219;48.186;11.554;2024-03-07T03:50:04;95981.38;;;15.36;45.26
82555;BME280;72219;48.186;11.554;2024-03-07T03:52:30;95979.09;;;15.33;45.29
82555;BME280;72219;48.186;11.554;2024-03-07T03:54:58;95986.44;;;15.37;45.09
82555;BME280;72219;48.186;11.554;2024-03-07T03:57:25;95983.16;;;15.35;45.22
82555;BME280;72219;48.186;11.554;2024-03-07T03:59:50;95979.75;;;15.35;44.97
82555;BME280;72219;48.186;11.554;2024-03-07T04:02:15;95971.44;;;15.31;44.74
82555;BME280;72219;48.186;11.554;2024-03-07T04:04:42;95986.56;;;15.19;45.03
82555;BME280;72219;48.186;11.554;2024-03-07T04:07:07;95969.97;;;15.20;45.24
82555;BME280;72219;48.186;11.554;2024-03-07T04:09:33;95976.81;;;15.29;44.97
82555;BME280;72219;48.186;11.554;2024-03-07T04:11:58;95983.34;;;15.25;44.74
82555;BME280;72219;48.186;11.554;2024-03-07T04:14:25;95969.97;;;15.12;45.23
82555;BME280;72219;48.186;11.554;2024-03-07T04:16:50;95972.91;;;15.09;45.60
82555;BME280;72219;48.186;11.554;2024-03-07T04:19:16;95978.75;;;15.11;45.73
82555;BME280;72219;48.186;11.554;2024-03-07T04:21:42;95979.88;;;15.17;45.19
82555;BME280;72219;48.186;11.554;2024-03-07T04:24:08;95980.38;;;15.12;45.25
82555;BME280;72219;48.186;11.554;2024-03-07T04:26:34;95987.53;;;15.18;45.17
82555;BME280;72219;48.186;11.554;2024-03-07T04:28:59;95986.06;;;15.07;44.95
82555;BME280;72219;48.186;11.554;2024-03-07T04:31:24;95982.66;;;15.07;45.72
82555;BME280;72219;48.186;11.554;2024-03-07T04:33:50;95983.97;;;15.19;44.91
82555;BME280;72219;48.186;11.554;2024-03-07T04:36:16;95975.00;;;15.22;45.29
82555;BME280;72219;48.186;11.554;2024-03-07T04:38:41;95964.25;;;15.17;45.26
82555;BME280;72219;48.186;11.554;2024-03-07T04:41:13;95975.50;;;15.17;45.35
82555;BME280;72219;48.186;11.554;2024-03-07T04:43:40;95964.41;;;15.15;45.35
82555;BME280;72219;48.186;11.554;2024-03-07T04:46:07;95974.84;;;15.23;45.21
82555;BME280;72219;48.186;11.554;2024-03-07T04:48:33;95962.94;;;15.21;45.09
82555;BME280;72219;48.186;11.554;2024-03-07T04:50:58;95963.44;;;15.16;44.96
82555;BME280;72219;48.186;11.554;2024-03-07T04:53:24;95977.44;;;15.23;45.00
82555;BME280;72219;48.186;11.554;2024-03-07T04:55:49;95972.56;;;15.12;45.30
82555;BME280;72219;48.186;11.554;2024-03-07T04:58:16;95972.41;;;15.22;45.24
82555;BME280;72219;48.186;11.554;2024-03-07T05:00:41;95980.38;;;15.20;45.05
82555;BME280;72219;48.186;11.554;2024-03-07T05:03:06;95978.25;;;15.16;45.12
82555;BME280;72219;48.186;11.554;2024-03-07T05:05:32;95987.53;;;15.10;45.11
82555;BME280;72219;48.186;11.554;2024-03-07T05:07:58;95975.50;;;15.09;45.25
82555;BME280;72219;48.186;11.554;2024-03-07T05:10:23;95972.84;;;15.01;45.32
82555;BME280;72219;48.186;11.554;2024-03-07T05:12:49;95984.13;;;15.09;45.10
82555;BME280;72219;48.186;11.554;2024-03-07T05:15:15;95988.69;;;15.16;45.21
82555;BME280;72219;48.186;11.554;2024-03-07T05:17:43;95987.38;;;15.11;45.43
82555;BME280;72219;48.186;11.554;2024-03-07T05:20:09;95984.75;;;15.11;45.38
82555;BME280;72219;48.186;11.554;2024-03-07T05:22:38;95986.06;;;15.07;45.24
82555;BME280;72219;48.186;11.554;2024-03-07T05:25:18;95997.50;;;15.14;45.27
82555;BME280;72219;48.186;11.554;2024-03-07T05:27:47;95989.97;;;15.03;45.17
82555;BME280;72219;48.186;11.554;2024-03-07T05:30:16;95997.00;;;15.11;45.14
82555;BME280;72219;48.186;11.554;2024-03-07T05:32:42;95997.63;;;15.05;44.97
82555;BME280;72219;48.186;11.554;2024-03-07T05:35:27;96001.69;;;15.07;45.03
82555;BME280;72219;48.186;11.554;2024-03-07T05:37:55;96003.34;;;15.08;45.00
82555;BME280;72219;48.186;11.554;2024-03-07T05:40:22;95993.41;;;15.04;45.23
82555;BME280;72219;48.186;11.554;2024-03-07T05:42:48;95998.47;;;15.05;45.33
82555;BME280;72219;48.186;11.554;2024-03-07T05:45:14;95996.19;;;15.10;44.94
82555;BME280;72219;48.186;11.554;2024-03-07T05:47:41;95998.97;;;15.09;44.90
82555;BME280;72219;48.186;11.554;2024-03-07T05:50:07;96000.72;;;15.08;45.32
82555;BME280;72219;48.186;11.554;2024-03-07T05:52:36;96000.72;;;15.08;44.95
82555;BME280;72219;48.186;11.554;2024-03-07T05:55:02;95993.09;;;15.07;44.88
82555;BME280;72219;48.186;11.554;2024-03-07T05:57:28;95985.88;;;15.01;45.44
82555;BME280;72219;48.186;11.554;2024-03-07T05:59:53;95975.47;;;15.01;45.07
82555;BME280;72219;48.186;11.554;2024-03-07T06:02:18;95975.63;;;14.99;44.89
82555;BME280;72219;48.186;11.554;2024-03-07T06:04:52;95996.19;;;15.10;45.00
82555;BME280;72219;48.186;11.554;2024-03-07T06:07:17;95990.81;;;15.12;45.09
82555;BME280;72219;48.186;11.554;2024-03-07T06:09:43;95990.81;;;15.04;45.11
82555;BME280;72219;48.186;11.554;2024-03-07T06:12:10;95988.38;;;15.10;45.15
82555;BME280;72219;48.186;11.554;2024-03-07T06:14:35;95990.47;;;15.15;44.76
82555;BME280;72219;48.186;11.554;2024-03-07T06:17:00;95994.56;;;15.18;45.05
82555;BME280;72219;48.186;11.554;2024-03-07T06:19:26;95994.56;;;15.09;45.02
82555;BME280;72219;48.186;11.554;2024-03-07T06:21:51;95988.84;;;15.06;45.14
82555;BME280;72219;48.186;11.554;2024-03-07T06:24:18;95993.41;;;15.12;44.72
82555;BME280;72219;48.186;11.554;2024-03-07T06:26:44;95996.63;;;14.97;44.92
82555;BME280;72219;48.186;11.554;2024-03-07T06:29:09;95995.00;;;14.96;45.14
82555;BME280;72219;48.186;11.554;2024-03-07T06:31:38;95994.38;;;15.03;44.70
82555;BME280;72219;48.186;11.554;2024-03-07T06:34:03;95993.25;;;15.05;45.01
82555;BME280;72219;48.186;11.554;2024-03-07T06:36:29;95987.88;;;15.07;45.14
82555;BME280;72219;48.186;11.554;2024-03-07T06:38:55;95980.06;;;15.07;44.55
82555;BME280;72219;48.186;11.554;2024-03-07T06:41:20;95995.69;;;15.15;44.51
82555;BME280;72219;48.186;11.554;2024-03-07T06:43:46;95994.56;;;15.18;44.41
82555;BME280;72219;48.186;11.554;2024-03-07T06:46:11;95993.75;;;15.17;44.35
82555;BME280;72219;48.186;11.554;2024-03-07T06:48:40;95998.81;;;15.27;44.38
82555;BME280;72219;48.186;11.554;2024-03-07T06:51:06;95983.81;;;15.29;44.11
82555;BME280;72219;48.186;11.554;2024-03-07T06:53:32;95991.78;;;15.27;44.67
82555;BME280;72219;48.186;11.554;2024-03-07T06:55:57;95992.94;;;15.25;44.39
82555;BME280;72219;48.186;11.554;2024-03-07T06:58:23;95996.72;;;15.30;44.01
82555;BME280;72219;48.186;11.554;2024-03-07T07:00:52;95982.66;;;15.31;44.36
82555;BME280;72219;48.186;11.554;2024-03-07T07:03:23;95987.09;;;15.31;44.34
82555;BME280;72219;48.186;11.554;2024-03-07T07:05:49;95983.34;;;15.34;44.21
82555;BME280;72219;48.186;11.554;2024-03-07T07:08:15;95998.16;;;15.33;43.97
82555;BME280;72219;48.186;11.554;2024-03-07T07:10:41;96004.19;;;15.34;44.49
82555;BME280;72219;48.186;11.554;2024-03-07T07:13:08;96000.63;;;15.35;44.32
82555;BME280;72219;48.186;11.554;2024-03-07T07:15:33;95997.19;;;15.26;44.26
82555;BME280;72219;48.186;11.554;2024-03-07T07:17:59;95995.06;;;15.29;43.97
82555;BME280;72219;48.186;11.554;2024-03-07T07:20:27;95998.66;;;15.28;43.95
82555;BME280;72219;48.186;11.554;2024-03-07T07:22:53;95994.56;;;15.26;44.13
82555;BME280;72219;48.186;11.554;2024-03-07T07:25:18;95998.47;;;15.30;44.21
82555;BME280;72219;48.186;11.554;2024-03-07T07:27:49;95999.94;;;15.33;44.09
82555;BME280;72219;48.186;11.554;2024-03-07T07:30:17;95995.25;;;15.36;44.29
82555;BME280;72219;48.186;11.554;2024-03-07T07:32:44;95989.34;;;15.34;43.91
82555;BME280;72219;48.186;11.554;2024-03-07T07:35:12;95981.88;;;15.23;44.47
82555;BME280;72219;48.186;11.554;2024-03-07T07:37:45;95997.50;;;15.31;44.34
82555;BME280;72219;48.186;11.554;2024-03-07T07:40:13;95993.59;;;15.35;44.03
82555;BME280;72219;48.186;11.554;2024-03-07T07:42:43;95998.97;;;15.34;44.12
82555;BME280;72219;48.186;11.554;2024-03-07T07:45:09;95996.03;;;15.37;44.03
82555;BME280;72219;48.186;11.554;2024-03-07T07:47:42;95989.03;;;15.29;44.20
82555;BME280;72219;48.186;11.554;2024-03-07T07:50:09;95990.81;;;15.28;43.84
82555;BME280;72219;48.186;11.554;2024-03-07T07:52:50;95982.03;;;15.29;43.59
82555;BME280;72219;48.186;11.554;2024-03-07T07:57:53;95991.16;;;15.34;44.18
82555;BME280;72219;48.186;11.554;2024-03-07T08:00:19;95992.47;;;15.29;44.18
82555;BME280;72219;48.186;11.554;2024-03-07T08:03:02;95971.91;;;15.26;44.46
82555;BME280;72219;48.186;11.554;2024-03-07T08:05:33;95981.06;;;15.30;44.16
82555;BME280;72219;48.186;11.554;2024-03-07T08:08:04;95981.69;;;15.33;43.91
82555;BME280;72219;48.186;11.554;2024-03-07T08:10:32;95968.84;;;15.31;43.71
82555;BME280;72219;48.186;11.554;2024-03-07T08:12:58;95984.13;;;15.42;43.85
82555;BME280;72219;48.186;11.554;2024-03-07T08:15:25;95994.91;;;15.56;43.80
82555;BME280;72219;48.186;11.554;2024-03-07T08:17:52;95987.41;;;15.61;43.48
82555;BME280;72219;48.186;11.554;2024-03-07T08:20:19;95971.59;;;15.54;43.61
82555;BME280;72219;48.186;11.554;2024-03-07T08:22:49;95992.78;;;15.68;43.18
82555;BME280;72219;48.186;11.554;2024-03-07T08:25:19;95984.63;;;15.62;43.38
82555;BME280;72219;48.186;11.554;2024-03-07T08:27:47;95991.97;;;15.67;43.20
82555;BME280;72219;48.186;11.554;2024-03-07T08:30:13;95981.38;;;15.69;43.33
82555;BME280;72219;48.186;11.554;2024-03-07T08:32:48;95981.22;;;15.70;43.28
82555;BME280;72219;48.186;11.554;2024-03-07T08:35:14;95984.94;;;15.76;42.90
82555;BME280;72219;48.186;11.554;2024-03-07T08:37:42;95976.16;;;15.77;42.94
82555;BME280;72219;48.186;11.554;2024-03-07T08:40:09;95985.97;;;15.83;42.92
82555;BME280;72219;48.186;11.554;2024-03-07T08:42:44;95979.91;;;15.91;42.42
82555;BME280;72219;48.186;11.554;2024-03-07T08:45:10;95973.06;;;15.98;42.52
82555;BME280;72219;48.186;11.554;2024-03-07T08:47:37;95974.00;;;16.05;42.33
82555;BME280;72219;48.186;11.554;2024-03-07T08:50:04;95974.63;;;16.16;41.95
82555;BME280;72219;48.186;11.554;2024-03-07T08:52:34;95978.41;;;16.13;41.81
82555;BME280;72219;48.186;11.554;2024-03-07T08:55:02;95971.03;;;16.17;41.77
82555;BME280;72219;48.186;11.554;2024-03-07T08:57:28;95968.59;;;16.15;42.00
82555;BME280;72219;48.186;11.554;2024-03-07T08:59:53;95976.91;;;16.19;41.91
82555;BME280;72219;48.186;11.554;2024-03-07T09:02:19;95973.16;;;16.21;41.87
82555;BME280;72219;48.186;11.554;2024-03-07T09:04:44;95967.59;;;16.16;41.68
82555;BME280;72219;48.186;11.554;2024-03-07T09:07:11;95974.44;;;16.25;41.84
82555;BME280;72219;48.186;11.554;2024-03-07T09:09:39;95964.00;;;16.25;41.68
82555;BME280;72219;48.186;11.554;2024-03-07T09:12:05;95975.22;;;16.34;42.01
82555;BME280;72219;48.186;11.554;2024-03-07T09:14:31;95971.00;;;16.33;41.88
82555;BME280;72219;48.186;11.554;2024-03-07T09:16:56;95966.22;;;16.37;41.96
82555;BME280;72219;48.186;11.554;2024-03-07T09:19:23;95964.22;;;16.47;41.53
82555;BME280;72219;48.186;11.554;2024-03-07T09:21:52;95969.78;;;16.52;41.38
82555;BME280;72219;48.186;11.554;2024-03-07T09:24:19;95973.19;;;16.53;41.41
82555;BME280;72219;48.186;11.554;2024-03-07T09:26:50;95969.06;;;16.58;40.93
82555;BME280;72219;48.186;11.554;2024-03-07T09:29:17;95970.53;;;16.61;41.21
82555;BME280;72219;48.186;11.554;2024-03-07T09:31:46;95959.78;;;16.56;40.97
82555;BME280;72219;48.186;11.554;2024-03-07T09:34:14;95972.00;;;16.63;40.96
82555;BME280;72219;48.186;11.554;2024-03-07T09:36:40;95964.97;;;16.64;41.12
82555;BME280;72219;48.186;11.554;2024-03-07T09:39:08;95970.16;;;16.72;40.98
82555;BME280;72219;48.186;11.554;2024-03-07T09:41:40;95966.72;;;16.72;40.77
82555;BME280;72219;48.186;11.554;2024-03-07T09:44:09;95962.59;;;16.77;40.79
82555;BME280;72219;48.186;11.554;2024-03-07T09:46:38;95950.66;;;16.83;40.52
82555;BME280;72219;48.186;11.554;2024-03-07T09:49:04;95951.34;;;16.77;40.67
82555;BME280;72219;48.186;11.554;2024-03-07T09:51:31;95966.34;;;16.83;40.64
82555;BME280;72219;48.186;11.554;2024-03-07T09:53:58;95968.84;;;16.76;40.90
82555;BME280;72219;48.186;11.554;2024-03-07T09:56:25;95964.38;;;16.85;40.51
82555;BME280;72219;48.186;11.554;2024-03-07T09:58:53;95964.00;;;16.88;40.55
82555;BME280;72219;48.186;11.554;2024-03-07T10:01:25;95962.41;;;16.87;40.38
82555;BME280;72219;48.186;11.554;2024-03-07T10:04:01;95965.03;;;16.87;40.97
82555;BME280;72219;48.186;11.554;2024-03-07T10:06:35;95967.94;;;16.84;40.46
82555;BME280;72219;48.186;11.554;2024-03-07T10:09:04;95956.53;;;16.85;40.95
82555;BME280;72219;48.186;11.554;2024-03-07T10:11:32;95965.31;;;16.92;40.72
82555;BME280;72219;48.186;11.554;2024-03-07T10:13:57;95963.22;;;16.88;40.54
82555;BME280;72219;48.186;11.554;2024-03-07T10:16:23;95965.50;;;16.91;41.04
82555;BME280;72219;48.186;11.554;2024-03-07T10:18:48;95964.38;;;16.85;40.57
82555;BME280;72219;48.186;11.554;2024-03-07T10:21:18;95960.81;;;16.78;40.89
82555;BME280;72219;48.186;11.554;2024-03-07T10:23:44;95968.63;;;16.86;40.82
82555;BME280;72219;48.186;11.554;2024-03-07T10:26:10;95965.66;;;16.89;40.92
82555;BME280;72219;48.186;11.554;2024-03-07T10:28:37;95961.09;;;16.91;40.75
82555;BME280;72219;48.186;11.554;2024-03-07T10:31:03;95961.56;;;16.87;41.02
82555;BME280;72219;48.186;11.554;2024-03-07T10:33:29;95957.38;;;16.77;41.09
82555;BME280;72219;48.186;11.554;2024-03-07T10:36:00;95954.72;;;16.86;41.10
82555;BME280;72219;48.186;11.554;2024-03-07T10:38:25;95956.50;;;16.93;40.88
82555;BME280;72219;48.186;11.554;2024-03-07T10:40:53;95944.53;;;16.99;40.58
82555;BME280;72219;48.186;11.554;2024-03-07T10:43:20;95946.88;;;17.17;40.24
82555;BME280;72219;48.186;11.554;2024-03-07T10:45:48;95952.09;;;17.17;40.06
82555;BME280;72219;48.186;11.554;2024-03-07T10:48:16;95935.13;;;17.13;40.26
82555;BME280;72219;48.186;11.554;2024-03-07T10:53:21;95940.41;;;17.28;39.74
82555;BME280;72219;48.186;11.554;2024-03-07T10:56:33;95947.72;;;17.32;39.77
82555;BME280;72219;48.186;11.554;2024-03-07T11:04:38;95937.34;;;17.24;40.10
82555;BME280;72219;48.186;11.554;2024-03-07T11:07:04;95939.25;;;17.30;39.79
82555;BME280;72219;48.186;11.554;2024-03-07T11:09:31;95941.50;;;17.34;40.11
82555;BME280;72219;48.186;11.554;2024-03-07T11:12:00;95933.78;;;17.40;39.62
82555;BME280;72219;48.186;11.554;2024-03-07T11:14:29;95925.84;;;17.48;39.39
82555;BME280;72219;48.186;11.554;2024-03-07T11:16:55;95930.66;;;17.60;39.31
82555;BME280;72219;48.186;11.554;2024-03-07T11:19:31;95924.44;;;17.61;39.50
82555;BME280;72219;48.186;11.554;2024-03-07T11:22:02;95930.16;;;17.79;39.08
82555;BME280;72219;48.186;11.554;2024-03-07T11:24:29;95915.88;;;17.82;38.98
82555;BME280;72219;48.186;11.554;2024-03-07T11:26:57;95922.59;;;17.99;38.47
82555;BME280;72219;48.186;11.554;2024-03-07T11:32:17;95916.91;;;17.96;38.68
82555;BME280;72219;48.186;11.554;2024-03-07T11:34:47;95903.50;;;17.76;39.16
82555;BME280;72219;48.186;11.554;2024-03-07T11:37:19;95911.06;;;17.71;39.40
82555;BME280;72219;48.186;11.554;2024-03-07T11:39:48;95881.84;;;17.67;38.93
82555;BME280;72219;48.186;11.554;2024-03-07T11:42:28;95905.94;;;17.77;39.34
82555;BME280;72219;48.186;11.554;2024-03-07T11:44:56;95884.84;;;17.64;39.15
82555;BME280;72219;48.186;11.554;2024-03-07T11:47:23;95892.16;;;17.69;39.27
82555;BME280;72219;48.186;11.554;2024-03-07T11:49:50;95888.06;;;17.66;39.31
82555;BME280;72219;48.186;11.554;2024-03-07T11:52:18;95888.25;;;17.64;39.64
82555;BME280;72219;48.186;11.554;2024-03-07T11:54:43;95885.06;;;17.54;39.79
82555;BME280;72219;48.186;11.554;2024-03-07T11:57:16;95893.66;;;17.48;39.83
82555;BME280;72219;48.186;11.554;2024-03-07T11:59:42;95879.75;;;17.47;39.92
82555;BME280;72219;48.186;11.554;2024-03-07T12:02:13;95886.63;;;17.63;39.68
82555;BME280;72219;48.186;11.554;2024-03-07T12:04:44;95887.91;;;17.68;39.62
82555;BME280;72219;48.186;11.554;2024-03-07T12:07:09;95867.59;;;17.70;39.49
82555;BME280;72219;48.186;11.554;2024-03-07T12:09:43;95875.28;;;17.86;39.38
82555;BME280;72219;48.186;11.554;2024-03-07T12:12:11;95871.38;;;17.82;39.30
82555;BME280;72219;48.186;11.554;2024-03-07T12:14:37;95873.13;;;17.90;39.34
82555;BME280;72219;48.186;11.554;2024-03-07T12:17:04;95870.63;;;17.96;38.95
82555;BME280;72219;48.186;11.554;2024-03-07T12:19:34;95874.41;;;17.94;38.95
82555;BME280;72219;48.186;11.554;2024-03-07T12:22:07;95868.78;;;17.97;39.08
82555;BME280;72219;48.186;11.554;2024-03-07T12:24:40;95865.91;;;17.92;39.18
82555;BME280;72219;48.186;11.554;2024-03-07T12:27:09;95873.56;;;17.93;39.07
82555;BME280;72219;48.186;11.554;2024-03-07T12:29:37;95862.66;;;17.90;39.38
82555;BME280;72219;48.186;11.554;2024-03-07T12:32:05;95859.56;;;17.86;39.10
82555;BME280;72219;48.186;11.554;2024-03-07T12:34:32;95866.88;;;18.06;39.03
82555;BME280;72219;48.186;11.554;2024-03-07T12:37:05;95858.69;;;18.09;38.99
82555;BME280;72219;48.186;11.554;2024-03-07T12:39:34;95854.69;;;18.13;38.70
82555;BME280;72219;48.186;11.554;2024-03-07T12:42:18;95848.72;;;18.04;39.22
82555;BME280;72219;48.186;11.554;2024-03-07T12:44:45;95850.66;;;17.95;39.07
82555;BME280;72219;48.186;11.554;2024-03-07T12:47:12;95841.72;;;17.75;39.55
82555;BME280;72219;48.186;11.554;2024-03-07T12:49:39;95850.63;;;17.65;39.83
82555;BME280;72219;48.186;11.554;2024-03-07T12:52:05;95855.41;;;17.62;40.24
82555;BME280;72219;48.186;11.554;2024-03-07T12:54:37;95842.59;;;17.67;39.79
82555;BME280;72219;48.186;11.554;2024-03-07T12:57:11;95838.72;;;17.63;39.98
82555;BME280;72219;48.186;11.554;2024-03-07T12:59:41;95847.75;;;17.60;40.22
82555;BME280;72219;48.186;11.554;2024-03-07T13:02:10;95838.16;;;17.53;40.09
82555;BME280;72219;48.186;11.554;2024-03-07T13:04:36;95848.22;;;17.64;40.03